createdAt,value
2018-11-12T00:02:11.215Z,1029.60
2018-11-12T00:04:38.828Z,1028.70
2018-11-12T00:07:07.493Z,1073.63
2018-11-12T00:09:35.105Z,1028.70
2018-11-12T00:12:03.771Z,1073.30
2018-11-12T00:14:31.379Z,1057.87
2018-11-12T00:16:58.982Z,1044.70
2018-11-12T00:19:27.656Z,1058.13
2018-11-12T00:21:55.345Z,1026.93
2018-11-12T00:24:22.958Z,1063.07
2018-11-12T00:26:50.578Z,1026.50
2018-11-12T00:29:18.277Z,1053.77
2018-11-12T00:31:46.930Z,1044.43
2018-11-12T00:34:14.522Z,1014.27
2018-11-12T00:36:42.193Z,1042.97
2018-11-12T00:39:11.223Z,1042.00
2018-11-12T00:41:40.494Z,1045.60
2018-11-12T00:44:08.146Z,1042.00
2018-11-12T00:46:36.059Z,1064.53
2018-11-12T00:49:03.723Z,1055.40
2018-11-12T00:51:31.334Z,1059.90
2018-11-12T00:53:59.021Z,1045.63
2018-11-12T00:56:26.880Z,1055.63
2018-11-12T00:58:58.334Z,1029.33
2018-11-12T01:01:27.171Z,1045.17
2018-11-12T01:03:55.107Z,1031.73
2018-11-12T01:06:22.766Z,1036.90
2018-11-12T01:08:51.332Z,1025.20
2018-11-12T01:11:18.914Z,1028.83
2018-11-12T01:13:46.515Z,1027.47
2018-11-12T01:16:15.109Z,1024.90
2018-11-12T01:18:43.663Z,1014.57
2018-11-12T01:21:12.311Z,1020.67
2018-11-12T01:23:48.675Z,1006.27
2018-11-12T01:26:20.508Z,992.67
2018-11-12T01:28:49.151Z,975.83
2018-11-12T01:31:16.694Z,956.83
2018-11-12T01:33:45.582Z,1019.90
2018-11-12T01:36:14.214Z,1004.67
2018-11-12T01:38:41.834Z,1009.07
2018-11-12T01:41:11.563Z,977.13
2018-11-12T01:43:39.155Z,957.37
2018-11-12T01:46:07.867Z,1016.00
2018-11-12T01:48:42.542Z,979.27
2018-11-12T01:51:11.147Z,1013.63
2018-11-12T01:53:39.742Z,1032.97
2018-11-12T01:56:08.007Z,1003.47
2018-11-12T01:58:35.683Z,987.87
2018-11-12T02:01:08.665Z,987.47
2018-11-12T02:03:36.499Z,941.20
2018-11-12T02:06:06.119Z,947.07
2018-11-12T02:08:41.732Z,1007.60
2018-11-12T02:11:10.345Z,986.93
2018-11-12T02:13:38.967Z,1005.63
2018-11-12T02:16:07.336Z,1010.83
2018-11-12T02:18:36.093Z,921.37
2018-11-12T02:21:03.789Z,960.53
2018-11-12T02:23:32.456Z,977.37
2018-11-12T02:26:00.145Z,953.33
2018-11-12T02:28:29.905Z,998.10
2018-11-12T02:31:01.094Z,1022.80
2018-11-12T02:33:29.784Z,1000.03
2018-11-12T02:35:58.387Z,984.70
2018-11-12T02:38:27.235Z,932.03
2018-11-12T02:40:54.947Z,1999.90
2018-11-12T02:43:23.590Z,1999.90
2018-11-12T02:45:51.413Z,893.13
2018-11-12T02:48:19.982Z,1014.83
2018-11-12T02:50:47.498Z,1004.43
2018-11-12T02:53:15.302Z,998.70
2018-11-12T02:55:47.567Z,1003.57
2018-11-12T02:58:16.255Z,995.67
2018-11-12T03:00:44.099Z,1631.93
2018-11-12T03:03:13.423Z,909.80
2018-11-12T03:05:42.093Z,1999.90
2018-11-12T03:08:11.869Z,1999.90
2018-11-12T03:10:40.521Z,1999.90
2018-11-12T03:13:08.189Z,920.40
2018-11-12T03:15:35.960Z,926.20
2018-11-12T03:18:03.672Z,968.57
2018-11-12T03:20:33.376Z,887.63
2018-11-12T03:23:01.026Z,921.13
2018-11-12T03:25:28.639Z,919.47
2018-11-12T03:27:56.299Z,925.50
2018-11-12T03:30:23.988Z,935.53
2018-11-12T03:32:52.560Z,960.83
2018-11-12T03:35:21.163Z,1999.90
2018-11-12T03:37:49.631Z,897.03
2018-11-12T03:40:21.847Z,818.70
2018-11-12T03:42:55.029Z,869.33
2018-11-12T03:45:24.811Z,923.63
2018-11-12T03:47:52.496Z,956.30
2018-11-12T03:50:22.453Z,964.33
2018-11-12T03:52:51.095Z,945.60
2018-11-12T03:55:23.342Z,979.90
2018-11-12T03:57:52.981Z,976.80
2018-11-12T04:00:27.838Z,953.97
2018-11-12T04:02:55.594Z,923.40
2018-11-12T04:05:24.345Z,931.43
2018-11-12T04:07:52.031Z,912.93
2018-11-12T04:10:21.984Z,903.37
2018-11-12T04:12:49.886Z,874.97
2018-11-12T04:15:20.850Z,883.67
2018-11-12T04:17:49.514Z,927.37
2018-11-12T04:20:20.443Z,901.33
2018-11-12T04:22:53.364Z,933.97
2018-11-12T04:25:22.898Z,951.83
2018-11-12T04:27:50.602Z,970.93
2018-11-12T04:30:18.321Z,925.00
2018-11-12T04:32:46.573Z,927.23
2018-11-12T04:35:14.389Z,899.13
2018-11-12T04:37:42.056Z,834.10
2018-11-12T04:40:11.579Z,885.60
2018-11-12T04:42:39.901Z,946.53
2018-11-12T04:45:13.227Z,897.93
2018-11-12T04:47:41.463Z,899.70
2018-11-12T04:50:11.484Z,934.27
2018-11-12T04:52:41.407Z,959.37
2018-11-12T04:55:11.563Z,936.47
2018-11-12T04:57:40.946Z,946.43
2018-11-12T05:00:10.654Z,948.43
2018-11-12T05:02:40.297Z,937.43
2018-11-12T05:05:09.722Z,923.30
2018-11-12T05:07:43.014Z,946.50
2018-11-12T05:10:16.512Z,889.83
2018-11-12T05:12:46.577Z,923.30
2018-11-12T05:15:15.787Z,898.30
2018-11-12T05:17:43.409Z,934.63
2018-11-12T05:20:15.719Z,941.17
2018-11-12T05:22:43.846Z,890.73
2018-11-12T05:25:12.701Z,867.93
2018-11-12T05:27:42.307Z,915.17
2018-11-12T05:30:11.891Z,951.00
2018-11-12T05:32:39.534Z,945.67
2018-11-12T05:35:08.348Z,971.37
2018-11-12T05:37:36.421Z,876.73
2018-11-12T05:40:04.786Z,933.30
2018-11-12T05:42:32.394Z,933.50
2018-11-12T05:45:00.209Z,911.80
2018-11-12T05:47:30.004Z,1593.30
2018-11-12T05:49:57.769Z,821.77
2018-11-12T05:52:25.445Z,848.50
2018-11-12T05:54:54.098Z,905.20
2018-11-12T05:57:39.441Z,934.20
2018-11-12T06:00:13.794Z,928.83
2018-11-12T06:02:43.548Z,953.83
2018-11-12T06:05:13.202Z,911.60
2018-11-12T06:07:42.099Z,970.30
2018-11-12T06:10:12.705Z,954.27
2018-11-12T06:12:40.669Z,963.90
2018-11-12T06:15:16.310Z,953.53
2018-11-12T06:17:44.894Z,944.57
2018-11-12T06:20:15.470Z,965.17
2018-11-12T06:22:44.255Z,963.40
2018-11-12T06:25:13.106Z,985.53
2018-11-12T06:27:41.739Z,978.83
2018-11-12T06:30:13.126Z,985.73
2018-11-12T06:32:40.830Z,985.20
2018-11-12T06:35:13.613Z,943.40
2018-11-12T06:37:43.881Z,950.53
2018-11-12T06:40:13.311Z,901.03
2018-11-12T06:42:41.193Z,884.00
2018-11-12T06:45:10.758Z,856.23
2018-11-12T06:47:38.315Z,838.50
2018-11-12T06:50:06.985Z,833.77
2018-11-12T06:52:34.624Z,888.77
2018-11-12T06:55:02.298Z,881.90
2018-11-12T06:57:30.066Z,823.60
2018-11-12T06:59:58.725Z,877.40
2018-11-12T07:02:30.378Z,897.20
2018-11-12T07:04:57.982Z,880.27
2018-11-12T07:07:25.549Z,939.57
2018-11-12T07:09:56.183Z,891.07
2018-11-12T07:12:23.781Z,919.17
2018-11-12T07:14:51.659Z,918.77
2018-11-12T07:17:19.297Z,935.00
2018-11-12T07:19:46.967Z,897.27
2018-11-12T07:22:18.422Z,925.27
2018-11-12T07:24:49.978Z,900.60
2018-11-12T07:27:17.806Z,830.87
2018-11-12T07:29:46.787Z,875.97
2018-11-12T07:32:14.605Z,864.20
2018-11-12T07:34:42.206Z,824.10
2018-11-12T07:37:10.758Z,825.53
2018-11-12T07:39:39.317Z,807.80
2018-11-12T07:42:07.071Z,782.63
2018-11-12T07:44:34.550Z,746.47
2018-11-12T07:47:03.089Z,832.27
2018-11-12T07:49:33.818Z,808.47
2018-11-12T07:52:01.363Z,814.53
2018-11-12T07:54:31.267Z,805.63
2018-11-12T07:56:58.838Z,739.57
2018-11-12T07:59:27.470Z,702.73
2018-11-12T08:01:55.169Z,716.47
2018-11-12T08:04:26.192Z,667.53
2018-11-12T08:06:54.818Z,684.93
2018-11-12T08:09:23.375Z,724.47
2018-11-12T08:11:52.135Z,702.57
2018-11-12T08:14:22.961Z,725.37
2018-11-12T08:16:50.881Z,712.27
2018-11-12T08:19:22.633Z,720.17
2018-11-12T08:21:50.334Z,735.77
2018-11-12T08:24:18.025Z,751.87
2018-11-12T08:26:45.467Z,705.43
2018-11-12T08:29:14.014Z,740.73
2018-11-12T08:31:42.563Z,710.03
2018-11-12T08:34:12.159Z,725.63
2018-11-12T08:36:39.829Z,749.53
2018-11-12T08:39:07.484Z,742.53
2018-11-12T08:41:34.992Z,738.53
2018-11-12T08:44:02.569Z,773.00
2018-11-12T08:46:30.169Z,759.03
2018-11-12T08:48:57.988Z,742.03
2018-11-12T08:51:25.366Z,738.53
2018-11-12T08:53:53.012Z,747.73
2018-11-12T08:56:22.587Z,686.63
2018-11-12T08:58:50.144Z,661.47
2018-11-12T09:01:18.237Z,729.10
2018-11-12T09:03:47.036Z,653.77
2018-11-12T09:06:15.581Z,613.97
2018-11-12T09:08:43.105Z,608.57
2018-11-12T09:11:10.621Z,560.00
2018-11-12T09:13:38.176Z,558.37
2018-11-12T09:16:05.728Z,596.33
2018-11-12T09:18:33.291Z,634.43
2018-11-12T09:21:00.912Z,566.03
2018-11-12T09:23:28.458Z,646.87
2018-11-12T09:25:56.053Z,627.93
2018-11-12T09:28:24.609Z,602.43
2018-11-12T09:30:53.392Z,685.87
2018-11-12T09:33:24.806Z,626.13
2018-11-12T09:35:54.384Z,579.87
2018-11-12T09:38:22.051Z,628.53
2018-11-12T09:40:51.774Z,648.03
2018-11-12T09:43:21.438Z,685.53
2018-11-12T09:45:48.978Z,684.83
2018-11-12T09:48:16.671Z,606.07
2018-11-12T09:50:44.392Z,634.70
2018-11-12T09:53:11.953Z,661.90
2018-11-12T09:55:39.566Z,680.17
2018-11-12T09:58:08.137Z,661.50
2018-11-12T10:00:35.866Z,611.00
2018-11-12T10:03:04.446Z,625.10
2018-11-12T10:05:32.688Z,620.10
2018-11-12T10:08:02.163Z,652.27
2018-11-12T10:10:37.542Z,668.83
2018-11-12T10:13:04.866Z,634.53
2018-11-12T10:15:33.679Z,653.63
2018-11-12T10:18:02.362Z,652.17
2018-11-12T10:20:27.022Z,652.27
2018-11-12T10:22:54.609Z,636.07
2018-11-12T10:25:22.152Z,654.27
2018-11-12T10:27:50.960Z,662.47
2018-11-12T10:30:18.550Z,654.60
2018-11-12T10:32:47.089Z,615.53
2018-11-12T10:35:14.633Z,641.17
2018-11-12T10:37:42.534Z,655.13
2018-11-12T10:40:11.610Z,627.53
2018-11-12T10:42:39.211Z,653.13
2018-11-12T10:45:06.965Z,622.43
2018-11-12T10:47:34.437Z,657.60
2018-11-12T10:50:01.904Z,650.27
2018-11-12T10:52:29.500Z,714.37
2018-11-12T10:55:04.896Z,684.47
2018-11-12T10:57:24.648Z,631.60
2018-11-12T10:59:52.313Z,604.00
2018-11-12T11:02:25.134Z,597.67
2018-11-12T11:04:52.751Z,561.93
2018-11-12T11:07:20.245Z,621.23
2018-11-12T11:09:47.766Z,567.87
2018-11-12T11:12:15.292Z,630.83
2018-11-12T11:14:42.797Z,758.80
2018-11-12T11:17:10.265Z,819.00
2018-11-12T11:19:37.831Z,788.03
2018-11-12T11:22:05.635Z,776.13
2018-11-12T11:24:33.216Z,699.53
2018-11-12T11:27:01.331Z,782.30
2018-11-12T11:29:28.970Z,853.27
2018-11-12T11:31:56.458Z,784.67
2018-11-12T11:34:24.092Z,795.53
2018-11-12T11:36:51.646Z,904.67
2018-11-12T11:39:20.150Z,1034.40
2018-11-12T11:41:47.803Z,854.73
2018-11-12T11:44:16.539Z,822.03
2018-11-12T11:46:44.129Z,1077.50
2018-11-12T11:49:11.680Z,1191.73
2018-11-12T11:51:39.589Z,1999.90
2018-11-12T11:54:08.124Z,1999.90
2018-11-12T11:56:35.741Z,1999.90
2018-11-12T11:59:03.220Z,1999.90
2018-11-12T12:01:30.817Z,1999.90
2018-11-12T12:04:00.072Z,1999.90
2018-11-12T12:06:28.318Z,1999.90
2018-11-12T12:08:56.333Z,1999.90
2018-11-12T12:11:23.836Z,1999.90
2018-11-12T12:13:51.350Z,1999.90
2018-11-12T12:16:18.889Z,1999.90
2018-11-12T12:18:46.470Z,950.43
2018-11-12T12:21:15.045Z,949.97
2018-11-12T12:23:42.586Z,939.80
2018-11-12T12:26:10.584Z,892.17
2018-11-12T12:28:38.134Z,698.57
2018-11-12T12:31:05.721Z,774.10
2018-11-12T12:33:34.302Z,756.97
2018-11-12T12:36:02.909Z,738.47
2018-11-12T12:38:30.454Z,713.80
2018-11-12T12:40:57.989Z,714.70
2018-11-12T12:43:27.544Z,712.33
2018-11-12T12:45:55.141Z,668.13
2018-11-12T12:48:22.593Z,646.40
2018-11-12T12:50:51.078Z,787.37
2018-11-12T12:53:20.619Z,845.63
2018-11-12T12:55:48.300Z,937.63
2018-11-12T12:58:15.875Z,855.43
2018-11-12T13:00:43.405Z,949.03
2018-11-12T13:03:11.971Z,939.77
2018-11-12T13:05:40.515Z,870.77
2018-11-12T13:08:09.039Z,765.27
2018-11-12T13:10:36.657Z,852.50
2018-11-12T13:13:04.358Z,914.97
2018-11-12T13:15:31.870Z,824.53
2018-11-12T13:17:59.353Z,823.03
2018-11-12T13:20:26.977Z,731.93
2018-11-12T13:22:54.483Z,847.67
2018-11-12T13:25:22.111Z,635.57
2018-11-12T13:27:49.721Z,639.90
2018-11-12T13:30:20.649Z,628.03
2018-11-12T13:32:48.592Z,674.90
2018-11-12T13:35:17.829Z,658.03
2018-11-12T13:37:58.897Z,558.30
2018-11-12T13:40:38.915Z,738.20
2018-11-12T13:43:07.926Z,809.13
2018-11-12T13:45:38.255Z,685.40
2018-11-12T13:48:08.174Z,720.80
2018-11-12T13:50:40.595Z,841.73
2018-11-12T13:53:10.307Z,866.20
2018-11-12T13:55:37.896Z,947.03
2018-11-12T13:58:05.418Z,891.70
2018-11-12T14:00:34.436Z,819.50
2018-11-12T14:03:03.712Z,758.50
2018-11-12T14:05:32.819Z,724.57
2018-11-12T14:08:00.374Z,744.17
2018-11-12T14:10:35.911Z,787.63
2018-11-12T14:13:04.534Z,842.90
2018-11-12T14:15:32.126Z,880.87
2018-11-12T14:17:59.782Z,849.43
2018-11-12T14:20:29.635Z,922.90
2018-11-12T14:23:00.305Z,901.53
2018-11-12T14:25:28.222Z,921.27
2018-11-12T14:27:56.712Z,947.70
2018-11-12T14:30:28.612Z,944.83
2018-11-12T14:32:56.221Z,1041.00
2018-11-12T14:35:23.810Z,1031.20
2018-11-12T14:37:55.914Z,1122.90
2018-11-12T14:40:23.573Z,1087.00
2018-11-12T14:42:51.242Z,1106.17
2018-11-12T14:45:20.960Z,1112.10
2018-11-12T14:47:49.082Z,1107.07
2018-11-12T14:50:16.802Z,1078.07
2018-11-12T14:52:49.486Z,1098.90
2018-11-12T14:55:17.843Z,1095.53
2018-11-12T14:57:45.417Z,1078.17
2018-11-12T15:00:22.493Z,1066.57
2018-11-12T15:02:50.531Z,1014.27
2018-11-12T15:05:19.409Z,1060.40
2018-11-12T15:07:48.976Z,1078.33
2018-11-12T15:10:17.111Z,1069.63
2018-11-12T15:12:47.893Z,1024.17
2018-11-12T15:15:15.748Z,1112.43
2018-11-12T15:17:45.659Z,1152.37
2018-11-12T15:20:19.075Z,1133.03
2018-11-12T15:22:48.455Z,1109.57
2018-11-12T15:25:19.077Z,1123.47
2018-11-12T15:27:49.376Z,1081.70
2018-11-12T15:30:20.003Z,1126.33
2018-11-12T15:32:51.985Z,1142.93
2018-11-12T15:35:23.703Z,1107.37
2018-11-12T15:37:55.174Z,1095.67
2018-11-12T15:40:22.975Z,1107.50
2018-11-12T15:42:53.455Z,1098.77
2018-11-12T15:45:23.380Z,1078.47
2018-11-12T15:47:51.229Z,1073.07
2018-11-12T15:50:24.679Z,1085.63
2018-11-12T15:52:52.998Z,1143.40
2018-11-12T15:55:27.757Z,1110.13
2018-11-12T15:57:57.691Z,1080.80
2018-11-12T16:00:33.683Z,1097.87
2018-11-12T16:03:01.207Z,1079.57
2018-11-12T16:05:37.662Z,1089.00
2018-11-12T16:08:05.462Z,1073.93
2018-11-12T16:10:34.142Z,1060.97
2018-11-12T16:13:01.972Z,1064.70
2018-11-12T16:15:32.854Z,1066.77
2018-11-12T16:18:02.830Z,1072.60
2018-11-12T16:20:31.407Z,1037.10
2018-11-12T16:23:02.390Z,1037.70
2018-11-12T16:25:37.792Z,981.40
2018-11-12T16:28:06.155Z,1006.07
2018-11-12T16:30:34.913Z,1001.03
2018-11-12T16:33:04.192Z,1017.40
2018-11-12T16:35:36.401Z,1025.30
2018-11-12T16:38:04.590Z,954.47
2018-11-12T16:40:32.194Z,972.33
2018-11-12T16:43:04.405Z,955.90
2018-11-12T16:45:34.339Z,967.97
2018-11-12T16:48:04.329Z,955.90
2018-11-12T16:50:33.970Z,990.70
2018-11-12T16:53:02.289Z,997.70
2018-11-12T16:55:33.443Z,975.57
2018-11-12T16:58:05.955Z,994.80
2018-11-12T17:00:33.714Z,1007.10
2018-11-12T17:03:04.243Z,1036.90
2018-11-12T17:05:34.695Z,993.27
2018-11-12T17:08:02.362Z,1014.40
2018-11-12T17:10:34.473Z,1014.37
2018-11-12T17:13:04.610Z,1063.07
2018-11-12T17:15:35.862Z,1053.77
2018-11-12T17:18:03.377Z,950.90
2018-11-12T17:20:32.222Z,963.47
2018-11-12T17:23:00.716Z,1025.83
2018-11-12T17:25:33.307Z,1040.33
2018-11-12T17:28:12.300Z,1011.80
2018-11-12T17:30:42.778Z,1019.00
2018-11-12T17:33:10.747Z,1026.40
2018-11-12T17:35:42.502Z,995.37
2018-11-12T17:38:12.290Z,996.73
2018-11-12T17:40:40.965Z,995.47
2018-11-12T17:43:12.469Z,997.37
2018-11-12T17:45:46.146Z,1037.40
2018-11-12T17:48:15.099Z,1024.03
2018-11-12T17:50:43.117Z,1041.33
2018-11-12T17:53:10.674Z,1022.90
2018-11-12T17:55:38.239Z,997.63
2018-11-12T17:58:07.393Z,1000.10
2018-11-12T18:00:36.839Z,955.73
2018-11-12T18:03:04.453Z,963.93
2018-11-12T18:05:33.995Z,962.97
2018-11-12T18:08:11.734Z,957.33
2018-11-12T18:10:39.510Z,968.70
2018-11-12T18:13:07.125Z,958.47
2018-11-12T18:15:36.258Z,1002.30
2018-11-12T18:18:03.905Z,981.77
2018-11-12T18:20:33.942Z,1048.20
2018-11-12T18:23:03.698Z,964.37
2018-11-12T18:25:32.330Z,947.43
2018-11-12T18:28:00.960Z,972.03
2018-11-12T18:30:33.293Z,938.93
2018-11-12T18:33:03.616Z,923.27
2018-11-12T18:35:37.712Z,989.20
2018-11-12T18:38:11.164Z,962.40
2018-11-12T18:40:39.280Z,957.07
2018-11-12T18:43:07.606Z,1020.93
2018-11-12T18:45:35.177Z,962.93
2018-11-12T18:48:04.787Z,912.23
2018-11-12T18:50:38.369Z,906.50
2018-11-12T18:53:08.397Z,912.90
2018-11-12T18:55:38.712Z,918.30
2018-11-12T18:58:08.548Z,928.43
2018-11-12T19:00:36.873Z,937.37
2018-11-12T19:03:06.222Z,938.83
2018-11-12T19:05:38.807Z,921.40
2018-11-12T19:08:06.356Z,934.77
2018-11-12T19:10:35.270Z,951.83
2018-11-12T19:13:04.953Z,943.60
2018-11-12T19:15:36.874Z,888.53
2018-11-12T19:18:06.810Z,919.37
2018-11-12T19:20:34.478Z,971.60
2018-11-12T19:23:02.150Z,955.13
2018-11-12T19:25:29.780Z,1025.30
2018-11-12T19:27:59.378Z,978.83
2018-11-12T19:30:27.904Z,929.33
2018-11-12T19:32:55.535Z,928.37
2018-11-12T19:35:24.588Z,934.70
2018-11-12T19:37:53.324Z,910.87
2018-11-12T19:40:22.194Z,923.03
2018-11-12T19:42:52.870Z,922.13
2018-11-12T19:45:25.125Z,906.20
2018-11-12T19:47:53.079Z,898.47
2018-11-12T19:50:22.966Z,940.50
2018-11-12T19:52:59.102Z,955.47
2018-11-12T19:55:26.761Z,981.07
2018-11-12T19:57:55.662Z,983.00
2018-11-12T20:00:25.648Z,963.93
2018-11-12T20:02:54.625Z,953.33
2018-11-12T20:05:24.318Z,968.17
2018-11-12T20:07:51.894Z,940.73
2018-11-12T20:10:20.898Z,941.20
2018-11-12T20:12:54.378Z,920.60
2018-11-12T20:15:23.808Z,914.83
2018-11-12T20:17:54.017Z,942.83
2018-11-12T20:20:23.248Z,894.23
2018-11-12T20:22:51.187Z,923.00
2018-11-12T20:25:19.590Z,911.00
2018-11-12T20:27:47.746Z,928.50
2018-11-12T20:30:18.614Z,929.83
2018-11-12T20:32:48.247Z,922.37
2018-11-12T20:35:18.954Z,943.80
2018-11-12T20:37:46.519Z,941.73
2018-11-12T20:40:14.965Z,972.70
2018-11-12T20:42:43.457Z,959.73
2018-11-12T20:45:12.996Z,952.40
2018-11-12T20:47:41.642Z,876.80
2018-11-12T20:50:11.525Z,928.17
2018-11-12T20:52:39.182Z,935.47
2018-11-12T20:55:07.238Z,910.50
2018-11-12T20:57:34.870Z,936.60
2018-11-12T21:00:03.625Z,918.33
2018-11-12T21:02:31.207Z,889.40
2018-11-12T21:04:59.925Z,951.90
2018-11-12T21:07:29.837Z,969.03
2018-11-12T21:09:58.584Z,968.63
2018-11-12T21:12:28.410Z,994.37
2018-11-12T21:14:56.254Z,976.23
2018-11-12T21:17:24.927Z,938.40
2018-11-12T21:19:53.618Z,984.93
2018-11-12T21:22:21.215Z,991.07
2018-11-12T21:24:48.880Z,944.13
2018-11-12T21:27:20.328Z,991.83
2018-11-12T21:29:49.965Z,1029.47
2018-11-12T21:32:18.742Z,1036.03
2018-11-12T21:34:46.419Z,988.20
2018-11-12T21:37:14.052Z,977.77
2018-11-12T21:39:41.634Z,942.60
2018-11-12T21:42:13.913Z,978.97
2018-11-12T21:44:41.553Z,972.07
2018-11-12T21:47:10.255Z,969.57
2018-11-12T21:49:38.888Z,973.30
2018-11-12T21:52:07.893Z,973.67
2018-11-12T21:54:37.061Z,1008.73
2018-11-12T21:57:05.055Z,1012.40
2018-11-12T21:59:34.612Z,1030.37
2018-11-12T22:02:03.808Z,1024.00
2018-11-12T22:04:31.407Z,1002.40
2018-11-12T22:06:59.065Z,1039.00
2018-11-12T22:09:29.770Z,996.47
2018-11-12T22:12:01.373Z,988.13
2018-11-12T22:14:28.958Z,943.90
2018-11-12T22:16:56.539Z,1022.53
2018-11-12T22:19:25.539Z,1026.53
2018-11-12T22:21:53.978Z,1030.30
2018-11-12T22:24:22.801Z,1020.07
2018-11-12T22:26:51.342Z,1028.30
2018-11-12T22:29:19.964Z,1071.47
2018-11-12T22:31:49.612Z,1059.50
2018-11-12T22:34:17.282Z,1003.37
2018-11-12T22:36:46.028Z,1016.10
2018-11-12T22:39:13.575Z,1002.33
2018-11-12T22:41:41.141Z,983.87
2018-11-12T22:44:08.710Z,965.17
2018-11-12T22:46:45.685Z,978.57
2018-11-12T22:49:14.314Z,995.80
2018-11-12T22:51:41.955Z,968.97
2018-11-12T22:54:09.661Z,980.40
2018-11-12T22:56:37.216Z,1040.03
2018-11-12T22:59:17.892Z,1008.17
2018-11-12T23:01:48.930Z,979.40
2018-11-12T23:04:21.298Z,1031.93
2018-11-12T23:06:48.845Z,1010.50
2018-11-12T23:09:29.826Z,1000.20
2018-11-12T23:12:01.092Z,975.97
2018-11-12T23:14:34.722Z,1001.17
2018-11-12T23:17:02.390Z,1007.47
2018-11-12T23:19:39.274Z,1024.33
2018-11-12T23:22:08.880Z,1040.83
2018-11-12T23:24:36.587Z,1017.60
2018-11-12T23:27:11.703Z,1065.00
2018-11-12T23:29:40.398Z,1002.23
2018-11-12T23:32:09.956Z,1008.70
2018-11-12T23:34:38.553Z,1010.20
2018-11-12T23:37:06.240Z,992.03
2018-11-12T23:39:34.107Z,999.80
2018-11-12T23:42:01.709Z,1034.87
2018-11-12T23:44:29.368Z,1022.57
2018-11-12T23:47:00.782Z,1026.27
2018-11-12T23:49:28.374Z,1027.00
2018-11-12T23:51:57.201Z,988.80
2018-11-12T23:54:24.924Z,1004.10
2018-11-12T23:57:07.238Z,1056.30
2018-11-12T23:59:35.789Z,1048.03
